Time;durP1;ratioP1;P1;durP2;ratioP2;P2;SDS_P1;SDS_P2;PMS_P1;PMS_P2;Temp;Humidity;BMP_temperature;BMP_pressure;BME280_temperature;BME280_humidity;BME280_pressure;Samples;Min_cycle;Max_cycle;Signal;HPM_P1;HPM_P2
2023/05/07 00:00:54;;;;;;;3.60;3.30;;;;;;;14.74;100.00;97727.44;1707782;75;677621;-73
2023/05/07 00:03:26;;;;;;;3.35;3.05;;;;;;;14.77;100.00;97714.66;1701611;75;745404;-73
2023/05/07 00:05:56;;;;;;;2.50;2.30;;;;;;;14.79;100.00;97710.16;1707112;75;676733;-73
2023/05/07 00:08:26;;;;;;;2.45;2.15;;;;;;;14.84;100.00;97698.38;1701115;75;754142;-75
2023/05/07 00:10:59;;;;;;;1.90;1.70;;;;;;;14.87;100.00;97696.63;1708867;75;677006;-70
2023/05/07 00:13:30;;;;;;;1.60;1.50;;;;;;;14.93;100.00;97693.84;1702965;75;742329;-71
2023/05/07 00:16:00;;;;;;;1.75;1.65;;;;;;;14.88;100.00;97692.59;1709461;75;677977;-70
2023/05/07 00:18:31;;;;;;;2.65;1.50;;;;;;;14.84;100.00;97695.63;1702075;75;754061;-73
2023/05/07 00:21:01;;;;;;;1.65;1.55;;;;;;;14.88;100.00;97678.81;1709031;75;676726;-73
2023/05/07 00:23:31;;;;;;;1.65;1.40;;;;;;;14.85;100.00;97660.53;1701563;75;744223;-72
2023/05/07 00:26:04;;;;;;;1.90;1.70;;;;;;;14.88;100.00;97657.50;1709898;75;676856;-74
2023/05/07 00:28:35;;;;;;;1.65;1.55;;;;;;;14.80;100.00;97667.56;1700378;75;752557;-70
2023/05/07 00:31:05;;;;;;;3.00;2.70;;;;;;;14.68;100.00;97671.59;1710782;75;673961;-71
2023/05/07 00:33:35;;;;;;;3.45;3.10;;;;;;;14.69;100.00;97675.84;1699861;75;735840;-74
2023/05/07 00:36:05;;;;;;;4.20;3.80;;;;;;;14.64;100.00;97687.63;1710599;75;680811;-73
2023/05/07 00:38:36;;;;;;;4.80;4.40;;;;;;;14.62;100.00;97698.38;1698092;75;745715;-72
2023/05/07 00:41:08;;;;;;;5.35;4.85;;;;;;;14.57;100.00;97697.13;1710916;75;672203;-72
2023/05/07 00:43:39;;;;;;;6.05;5.45;;;;;;;14.40;100.00;97697.09;1699754;75;746198;-75
2023/05/07 00:46:09;;;;;;;5.30;4.80;;;;;;;14.54;100.00;97711.16;1711096;75;707679;-74
2023/05/07 00:48:40;;;;;;;6.35;4.50;;;;;;;14.55;100.00;97710.69;1698078;75;764800;-70
2023/05/07 00:51:11;;;;;;;5.45;4.10;;;;;;;14.47;100.00;97696.59;1711173;75;675303;-72
2023/05/07 00:53:42;;;;;;;6.00;5.00;;;;;;;14.39;100.00;97701.13;1699196;75;759458;-74
2023/05/07 00:56:15;;;;;;;4.30;3.90;;;;;;;14.51;100.00;97701.13;1711043;75;674885;-73
2023/05/07 00:58:45;;;;;;;4.15;3.75;;;;;;;14.47;100.00;97704.88;1699513;75;752936;-71
2023/05/07 01:01:16;;;;;;;4.60;4.10;;;;;;;14.49;100.00;97699.63;1710901;75;677969;-71
2023/05/07 01:03:46;;;;;;;4.05;3.55;;;;;;;14.46;100.00;97702.63;1698817;75;751672;-69
2023/05/07 01:06:19;;;;;;;4.40;3.90;;;;;;;14.45;100.00;97693.59;1710569;75;676404;-71
2023/05/07 01:08:50;;;;;;;3.30;2.80;;;;;;;14.54;100.00;97692.63;1698885;75;751133;-72
2023/05/07 01:11:23;;;;;;;2.40;2.20;;;;;;;14.42;100.00;97689.09;1710943;75;673503;-70
2023/05/07 01:13:54;;;;;;;2.60;2.40;;;;;;;14.42;100.00;97691.84;1699323;75;757746;-70
2023/05/07 01:16:24;;;;;;;2.60;2.40;;;;;;;14.46;100.00;97689.63;1710044;75;677504;-70
2023/05/07 01:18:54;;;;;;;3.15;2.25;;;;;;;14.41;100.00;97687.63;1699550;75;751679;-70
2023/05/07 01:21:30;;;;;;;3.50;2.70;;;;;;;14.22;100.00;97692.84;1712425;75;678127;-71
2023/05/07 01:24:03;;;;;;;2.40;2.10;;;;;;;14.35;100.00;97692.34;1700346;75;746470;-69
2023/05/07 01:26:34;;;;;;;2.35;2.15;;;;;;;14.36;100.00;97690.34;1711398;75;670297;-73
2023/05/07 01:29:04;;;;;;;2.05;1.85;;;;;;;14.29;100.00;97688.88;1699946;75;745078;-72
2023/05/07 01:31:35;;;;;;;2.00;1.80;;;;;;;14.26;100.00;97682.34;1710902;75;675187;-73
2023/05/07 01:34:07;;;;;;;2.05;1.75;;;;;;;14.17;100.00;97690.09;1698666;75;742663;-71
2023/05/07 01:36:37;;;;;;;1.60;1.50;;;;;;;14.15;100.00;97684.34;1710253;75;687183;-71
2023/05/07 01:39:11;;;;;;;2.55;2.00;;;;;;;14.03;100.00;97689.09;1699585;75;743084;-71
2023/05/07 01:41:42;;;;;;;4.05;2.40;;;;;;;13.94;100.00;97689.31;1710730;75;679214;-71
2023/05/07 01:44:15;;;;;;;2.30;2.10;;;;;;;13.91;100.00;97693.81;1699436;75;744955;-71
2023/05/07 01:46:45;;;;;;;2.30;2.00;;;;;;;13.81;100.00;97687.78;1710505;75;677907;-71
2023/05/07 01:49:15;;;;;;;3.10;2.25;;;;;;;13.71;100.00;97694.78;1699604;75;745881;-71
2023/05/07 01:51:46;;;;;;;5.25;3.55;;;;;;;13.57;100.00;97692.97;1710336;75;673280;-68
2023/05/07 01:54:20;;;;;;;4.00;2.90;;;;;;;13.67;100.00;97688.75;1699521;75;757866;-73
2023/05/07 01:56:50;;;;;;;2.80;2.50;;;;;;;13.69;100.00;97696.53;1709679;75;678066;-75
2023/05/07 01:59:20;;;;;;;3.20;2.80;;;;;;;13.61;100.00;97698.97;1699455;75;743441;-71
2023/05/07 02:01:51;;;;;;;3.65;2.50;;;;;;;13.59;100.00;97696.72;1710510;75;676579;-72
2023/05/07 02:04:21;;;;;;;2.25;2.05;;;;;;;13.49;100.00;97691.94;1699523;75;754557;-71
2023/05/07 02:06:52;;;;;;;3.50;2.35;;;;;;;13.52;100.00;97690.97;1709498;75;676910;-70
2023/05/07 02:09:25;;;;;;;2.20;2.00;;;;;;;13.47;100.00;97694.41;1701113;75;745139;-73
2023/05/07 02:11:55;;;;;;;2.70;2.10;;;;;;;13.36;100.00;97689.63;1709427;75;678164;-70
2023/05/07 02:14:25;;;;;;;3.10;2.55;;;;;;;13.31;100.00;97682.13;1700980;75;754892;-73
2023/05/07 02:16:56;;;;;;;3.45;2.40;;;;;;;13.34;100.00;97683.88;1708445;75;673662;-72
2023/05/07 02:19:26;;;;;;;2.80;2.15;;;;;;;13.23;100.00;97673.56;1701801;75;756476;-70
2023/05/07 02:21:56;;;;;;;2.95;2.30;;;;;;;13.15;100.00;97681.50;1708266;75;675642;-70
2023/05/07 02:24:29;;;;;;;2.35;1.95;;;;;;;13.23;100.00;97679.06;1701483;75;741035;-72
2023/05/07 02:26:59;;;;;;;3.50;3.20;;;;;;;12.96;100.00;97685.91;1708178;75;675737;-70
2023/05/07 02:29:29;;;;;;;3.95;3.55;;;;;;;12.96;100.00;97685.91;1701372;75;740423;-72
2023/05/07 02:31:59;;;;;;;4.00;3.60;;;;;;;12.88;100.00;97696.59;1707638;75;676227;-73
2023/05/07 02:34:30;;;;;;;4.90;3.85;;;;;;;12.96;100.00;97694.16;1702088;75;744138;-69
2023/05/07 02:37:00;;;;;;;4.70;3.80;;;;;;;12.86;100.00;97684.59;1707761;75;674390;-75
2023/05/07 02:39:33;;;;;;;4.50;4.05;;;;;;;12.83;100.00;97685.59;1702132;75;737040;-73
2023/05/07 02:42:03;;;;;;;4.50;4.10;;;;;;;12.81;100.00;97688.81;1708338;75;671606;-72
2023/05/07 02:44:33;;;;;;;4.00;3.60;;;;;;;12.83;100.00;97689.09;1702087;75;749559;-71
2023/05/07 02:47:03;;;;;;;4.50;3.80;;;;;;;12.82;100.00;97679.34;1707388;75;695834;-71
2023/05/07 02:49:33;;;;;;;3.60;3.30;;;;;;;12.88;100.00;97685.63;1701945;75;752437;-72
2023/05/07 02:52:04;;;;;;;3.70;3.30;;;;;;;13.00;100.00;97686.44;1706371;75;683277;-71
2023/05/07 02:54:37;;;;;;;2.70;2.50;;;;;;;13.07;100.00;97685.97;1701482;75;741652;-72
2023/05/07 02:57:07;;;;;;;3.00;2.30;;;;;;;12.97;100.00;97688.16;1707685;75;682324;-74
2023/05/07 02:59:37;;;;;;;3.55;3.00;;;;;;;13.00;100.00;97689.94;1699835;75;865902;-72
2023/05/07 03:02:07;;;;;;;3.05;2.50;;;;;;;12.98;100.00;97691.66;1707960;75;675523;-71
2023/05/07 03:04:37;;;;;;;2.25;2.05;;;;;;;13.03;100.00;97687.44;1702234;75;736348;-73
2023/05/07 03:07:08;;;;;;;2.25;1.70;;;;;;;12.98;100.00;97695.16;1707963;75;684362;-71
2023/05/07 03:09:40;;;;;;;2.10;1.90;;;;;;;12.85;100.00;97696.84;1700993;75;798221;-70
2023/05/07 03:12:11;;;;;;;2.00;1.80;;;;;;;12.87;100.00;97697.09;1708501;75;671992;-72
2023/05/07 03:14:41;;;;;;;2.20;2.00;;;;;;;12.83;100.00;97702.06;1701911;75;743863;-72
2023/05/07 03:17:11;;;;;;;2.00;1.80;;;;;;;12.88;100.00;97701.34;1707440;75;675050;-73
2023/05/07 03:19:41;;;;;;;1.95;1.75;;;;;;;12.81;100.00;97705.31;1702105;75;746360;-72
2023/05/07 03:22:11;;;;;;;2.10;1.90;;;;;;;12.66;100.00;97699.97;1708164;75;678587;-70
2023/05/07 03:24:44;;;;;;;2.00;1.80;;;;;;;12.65;100.00;97712.19;1701902;75;742733;-72
2023/05/07 03:27:14;;;;;;;2.10;1.90;;;;;;;12.60;100.00;97701.91;1708428;75;674962;-70
2023/05/07 03:29:45;;;;;;;2.50;1.95;;;;;;;12.54;100.00;97701.88;1701180;75;747982;-75
2023/05/07 03:32:15;;;;;;;1.80;1.65;;;;;;;12.54;100.00;97710.09;1708352;75;674934;-72
2023/05/07 03:34:45;;;;;;;3.15;2.85;;;;;;;12.51;100.00;97710.34;1701166;75;740059;-74
2023/05/07 03:37:15;;;;;;;2.90;2.00;;;;;;;12.53;100.00;97718.81;1709239;75;673012;-72
2023/05/07 03:39:48;;;;;;;2.15;1.90;;;;;;;12.51;100.00;97721.31;1700829;75;746108;-71
2023/05/07 03:42:18;;;;;;;2.40;2.20;;;;;;;12.41;100.00;97717.22;1709505;75;675791;-72
2023/05/07 03:44:48;;;;;;;2.20;2.00;;;;;;;12.39;100.00;97720.47;1699443;75;752111;-73
2023/05/07 03:47:18;;;;;;;1.90;1.75;;;;;;;12.31;100.00;97719.41;1709632;75;676543;-70
2023/05/07 03:49:49;;;;;;;2.10;1.90;;;;;;;12.21;100.00;97720.81;1699442;75;739945;-73
2023/05/07 03:52:22;;;;;;;2.30;2.10;;;;;;;12.20;100.00;97717.31;1710359;75;691252;-73
2023/05/07 03:54:56;;;;;;;1.75;1.65;;;;;;;12.14;100.00;97724.72;1698159;75;739954;-71
2023/05/07 03:57:26;;;;;;;2.05;1.90;;;;;;;12.20;100.00;97724.81;1709466;75;673321;-72
2023/05/07 03:59:56;;;;;;;2.10;1.90;;;;;;;12.18;100.00;97719.78;1699289;75;745527;-70
2023/05/07 04:02:26;;;;;;;2.10;1.90;;;;;;;12.17;100.00;97723.00;1709514;75;680767;-73
2023/05/07 04:04:56;;;;;;;2.15;1.95;;;;;;;12.15;100.00;97726.25;1697761;75;754368;-74
2023/05/07 04:07:27;;;;;;;2.20;1.90;;;;;;;12.17;100.00;97728.50;1709372;75;678181;-72
2023/05/07 04:09:59;;;;;;;1.80;1.70;;;;;;;12.12;100.00;97738.94;1697468;75;756222;-74
2023/05/07 04:12:29;;;;;;;1.80;1.70;;;;;;;12.12;100.00;97738.19;1709865;75;673316;-71
2023/05/07 04:14:59;;;;;;;1.50;1.40;;;;;;;12.14;100.00;97738.44;1698095;75;773038;-72
2023/05/07 04:17:30;;;;;;;1.60;1.50;;;;;;;12.14;100.00;97741.19;1708104;75;674158;-72
2023/05/07 04:20:00;;;;;;;2.05;1.85;;;;;;;12.11;100.00;97731.19;1698848;75;740457;-72
2023/05/07 04:22:30;;;;;;;1.65;1.55;;;;;;;12.20;100.00;97735.78;1709995;75;681088;-73
2023/05/07 04:25:03;;;;;;;1.60;1.50;;;;;;;12.17;100.00;97743.00;1698069;75;751124;-73
2023/05/07 04:27:34;;;;;;;2.15;1.55;;;;;;;12.15;100.00;97743.47;1710070;75;673206;-75
2023/05/07 04:30:04;;;;;;;1.65;1.55;;;;;;;12.25;100.00;97744.06;1697716;75;748394;-72
2023/05/07 04:32:36;;;;;;;1.70;1.60;;;;;;;12.28;100.00;97743.06;1710332;75;683234;-71
2023/05/07 04:35:06;;;;;;;2.00;1.80;;;;;;;12.24;100.00;97748.06;1698615;75;740880;-70
2023/05/07 04:37:37;;;;;;;1.70;1.60;;;;;;;12.29;100.00;97755.59;1709089;75;679595;-72
2023/05/07 04:40:11;;;;;;;1.50;1.40;;;;;;;12.35;100.00;97753.63;1698779;75;747130;-73
2023/05/07 04:42:41;;;;;;;1.50;1.40;;;;;;;12.38;100.00;97749.16;1710633;75;670411;-69
2023/05/07 04:45:13;;;;;;;1.95;1.85;;;;;;;12.41;100.00;97758.41;1698132;75;753030;-73
2023/05/07 04:47:43;;;;;;;1.70;1.60;;;;;;;12.45;100.00;97754.22;1709936;75;678208;-70
2023/05/07 04:50:14;;;;;;;1.65;1.55;;;;;;;12.50;100.00;97755.50;1697217;75;747971;-70
2023/05/07 04:52:44;;;;;;;1.50;1.40;;;;;;;12.60;100.00;97765.06;1709791;75;674194;-76
2023/05/07 04:55:17;;;;;;;1.70;1.60;;;;;;;12.57;100.00;97772.28;1698539;75;737736;-70
2023/05/07 04:57:47;;;;;;;1.60;1.50;;;;;;;12.68;100.00;97768.16;1709704;75;684803;-72
2023/05/07 05:00:19;;;;;;;1.50;1.40;;;;;;;12.70;100.00;97769.16;1697772;75;745539;-70
2023/05/07 05:02:49;;;;;;;1.60;1.50;;;;;;;12.74;100.00;97771.69;1710243;75;683038;-70
2023/05/07 05:05:19;;;;;;;1.65;1.55;;;;;;;12.73;100.00;97781.91;1699434;75;764052;-73
2023/05/07 05:07:51;;;;;;;1.50;1.40;;;;;;;12.84;100.00;97775.00;1708822;75;678526;-70
2023/05/07 05:10:25;;;;;;;1.50;1.40;;;;;;;12.89;100.00;97780.56;1699626;75;735114;-73
2023/05/07 05:12:55;;;;;;;1.40;1.30;;;;;;;12.94;100.00;97768.84;1710077;75;683166;-70
2023/05/07 05:15:26;;;;;;;1.80;1.30;;;;;;;13.02;100.00;97774.66;1699889;75;744891;-73
2023/05/07 05:17:56;;;;;;;1.60;1.50;;;;;;;13.03;100.00;97780.88;1708768;75;670947;-71
2023/05/07 05:20:26;;;;;;;2.00;1.60;;;;;;;13.09;100.00;97784.44;1700501;75;754807;-69
2023/05/07 05:22:56;;;;;;;1.70;1.60;;;;;;;13.06;100.00;97777.94;1706876;75;672827;-70
2023/05/07 05:25:30;;;;;;;2.85;2.55;;;;;;;13.00;100.00;97785.38;1701298;75;749272;-72
2023/05/07 05:28:01;;;;;;;3.80;3.40;;;;;;;12.81;100.00;97786.97;1706662;75;673364;-71
2023/05/07 05:30:31;;;;;;;4.80;4.40;;;;;;;12.98;100.00;97785.09;1701221;75;740478;-71
2023/05/07 05:33:01;;;;;;;6.25;5.50;;;;;;;13.02;100.00;97784.88;1707404;75;670418;-72
2023/05/07 05:35:32;;;;;;;5.25;4.65;;;;;;;13.04;100.00;97783.16;1707694;64;750918;-71
2023/05/07 05:38:02;;;;;;;3.95;3.45;;;;;;;13.00;100.00;97788.88;1707756;75;671382;-71
2023/05/07 05:40:36;;;;;;;5.05;3.95;;;;;;;13.06;100.00;97793.63;1701458;75;746455;-71
2023/05/07 05:43:06;;;;;;;4.35;3.20;;;;;;;13.17;100.00;97794.47;1708617;75;671633;-70
2023/05/07 05:45:36;;;;;;;3.20;2.90;;;;;;;13.23;100.00;97805.53;1702269;75;748913;-72
2023/05/07 05:48:08;;;;;;;4.60;4.15;;;;;;;13.19;100.00;97802.25;1706814;75;698812;-71
2023/05/07 05:50:38;;;;;;;4.15;3.15;;;;;;;13.13;100.00;97804.97;1701650;75;755275;-70
2023/05/07 05:53:08;;;;;;;3.50;3.10;;;;;;;13.30;100.00;97805.09;1706670;75;679641;-71
2023/05/07 05:55:41;;;;;;;2.70;2.50;;;;;;;13.26;100.00;97803.78;1701951;75;723929;-75
2023/05/07 05:58:12;;;;;;;3.00;2.30;;;;;;;13.52;100.00;97803.72;1707513;75;683957;-71
2023/05/07 06:00:42;;;;;;;4.25;2.75;;;;;;;13.68;100.00;97805.78;1702021;75;748883;-71
2023/05/07 06:03:13;;;;;;;2.30;2.10;;;;;;;13.87;100.00;97800.63;1708572;75;677693;-73
2023/05/07 06:05:43;;;;;;;2.65;2.35;;;;;;;13.96;100.00;97794.91;1701790;75;747274;-71
2023/05/07 06:08:13;;;;;;;2.20;1.90;;;;;;;14.05;100.00;97794.69;1708113;75;674440;-71
2023/05/07 06:10:46;;;;;;;2.50;2.00;;;;;;;14.15;100.00;97786.22;1701845;75;748974;-71
2023/05/07 06:13:16;;;;;;;2.00;1.80;;;;;;;14.08;100.00;97792.94;1707847;75;675260;-70
2023/05/07 06:15:46;;;;;;;1.95;1.65;;;;;;;14.28;100.00;97792.72;1702025;75;753880;-71
2023/05/07 06:18:16;;;;;;;2.45;1.70;;;;;;;14.31;100.00;97781.97;1707672;75;676562;-72
2023/05/07 06:20:46;;;;;;;5.35;4.65;;;;;;;14.21;100.00;97784.22;1701899;75;767446;-71
2023/05/07 06:23:17;;;;;;;4.45;3.55;;;;;;;14.38;100.00;97787.78;1708354;75;669549;-73
2023/05/07 06:25:53;;;;;;;4.00;3.60;;;;;;;14.48;100.00;97800.03;1702148;75;753452;-71
2023/05/07 06:28:24;;;;;;;3.70;3.25;;;;;;;14.63;100.00;97793.59;1700044;75;670183;-71
2023/05/07 06:30:54;;;;;;;3.10;2.60;;;;;;;14.78;100.00;97794.06;1710776;75;682500;-71
2023/05/07 06:33:24;;;;;;;3.30;2.70;;;;;;;14.95;100.00;97796.09;1698912;75;677019;-73
2023/05/07 06:35:54;;;;;;;3.80;3.30;;;;;;;15.13;100.00;97801.84;1708907;75;670349;-72
2023/05/07 06:38:24;;;;;;;6.10;5.50;;;;;;;15.30;100.00;97795.56;1700253;75;678019;-72
2023/05/07 06:40:57;;;;;;;5.45;4.50;;;;;;;15.48;100.00;97799.78;1710423;75;675309;-75
2023/05/07 06:43:28;;;;;;;5.35;4.15;;;;;;;15.60;100.00;97800.50;1699792;75;672449;-71
2023/05/07 06:45:58;;;;;;;4.80;3.30;;;;;;;15.80;100.00;97802.94;1709765;75;676904;-73
2023/05/07 06:48:28;;;;;;;3.40;3.00;;;;;;;15.96;100.00;97793.84;1700868;75;679577;-74
2023/05/07 06:50:58;;;;;;;2.30;2.10;;;;;;;16.10;100.00;97799.56;1709668;75;668836;-72
2023/05/07 06:53:29;;;;;;;3.00;2.00;;;;;;;16.28;100.00;97804.47;1699757;75;854097;-71
2023/05/07 06:56:01;;;;;;;2.60;2.30;;;;;;;16.44;100.00;97804.91;1708639;75;675526;-72
2023/05/07 06:58:32;;;;;;;2.40;2.20;;;;;;;16.44;100.00;97805.66;1701639;75;670791;-72
2023/05/07 07:01:02;;;;;;;2.70;2.10;;;;;;;16.57;100.00;97805.84;1706784;75;672469;-74
2023/05/07 07:03:32;;;;;;;2.60;2.30;;;;;;;16.64;100.00;97803.75;1702166;75;690451;-72
2023/05/07 07:06:03;;;;;;;3.30;2.40;;;;;;;16.70;100.00;97810.75;1706972;75;672745;-73
2023/05/07 07:08:33;;;;;;;2.30;2.10;;;;;;;16.91;100.00;97813.13;1701989;75;672970;-72
2023/05/07 07:11:06;;;;;;;2.60;2.30;;;;;;;16.91;100.00;97824.19;1707519;75;702018;-70
2023/05/07 07:13:36;;;;;;;2.50;2.30;;;;;;;16.93;100.00;97814.13;1702845;75;675736;-73
2023/05/07 07:16:07;;;;;;;3.00;2.30;;;;;;;16.93;100.00;97816.91;1707914;75;673126;-72
2023/05/07 07:18:37;;;;;;;2.90;2.60;;;;;;;17.06;100.00;97821.06;1702112;75;685965;-72
2023/05/07 07:21:07;;;;;;;3.50;2.60;;;;;;;17.27;100.00;97822.16;1707998;75;674676;-73
2023/05/07 07:23:37;;;;;;;2.70;2.50;;;;;;;17.28;100.00;97822.88;1702248;75;676460;-74
2023/05/07 07:26:10;;;;;;;4.00;2.45;;;;;;;17.29;100.00;97816.81;1707751;75;673342;-73
2023/05/07 07:28:48;;;;;;;2.30;2.10;;;;;;;17.63;100.00;97822.00;1702259;75;676712;-76
2023/05/07 07:31:18;;;;;;;3.50;3.10;;;;;;;17.38;100.00;97824.78;1707412;75;681892;-73
2023/05/07 07:33:49;;;;;;;2.70;2.45;;;;;;;17.36;100.00;97826.56;1701407;75;754625;-71
2023/05/07 07:36:20;;;;;;;2.50;2.30;;;;;;;17.58;100.00;97817.28;1707228;75;673395;-72
2023/05/07 07:38:50;;;;;;;2.50;2.30;;;;;;;17.66;100.00;97821.00;1700804;75;744293;-73
2023/05/07 07:41:23;;;;;;;2.85;2.45;;;;;;;17.83;100.00;97831.91;1707194;75;679363;-71
2023/05/07 07:43:53;;;;;;;2.20;2.00;;;;;;;18.01;100.00;97836.72;1701446;75;751922;-71
2023/05/07 07:46:23;;;;;;;2.15;1.95;;;;;;;17.98;100.00;97840.53;1707174;75;672847;-71
2023/05/07 07:48:53;;;;;;;2.10;1.90;;;;;;;18.23;100.00;97841.25;1701829;75;735549;-74
2023/05/07 07:51:24;;;;;;;2.60;2.10;;;;;;;18.33;100.00;97833.31;1707491;75;673952;-71
2023/05/07 07:53:54;;;;;;;2.85;2.55;;;;;;;18.31;100.00;97828.28;1701259;75;749124;-73
2023/05/07 07:56:27;;;;;;;2.85;2.40;;;;;;;18.41;100.00;97825.13;1707411;75;692126;-72
2023/05/07 07:58:57;;;;;;;5.25;3.30;;;;;;;18.69;100.00;97825.47;1701415;75;753792;-75
2023/05/07 08:01:27;;;;;;;3.20;2.35;;;;;;;18.62;97.78;97819.81;1708014;75;674721;-72
2023/05/07 08:03:58;;;;;;;2.55;2.15;;;;;;;18.66;95.33;97823.75;1701843;75;746077;-72
2023/05/07 08:06:28;;;;;;;2.30;2.10;;;;;;;18.73;95.25;97817.59;1707063;75;679968;-72
2023/05/07 08:08:58;;;;;;;2.30;2.10;;;;;;;18.82;97.18;97818.53;1701572;75;745454;-71
2023/05/07 08:11:31;;;;;;;3.10;2.30;;;;;;;19.04;92.06;97822.94;1706981;75;679867;-73
2023/05/07 08:14:01;;;;;;;2.20;1.95;;;;;;;19.10;93.43;97829.91;1701607;75;753750;-71
2023/05/07 08:16:32;;;;;;;2.65;1.95;;;;;;;19.28;92.39;97814.47;1707535;75;671337;-71
2023/05/07 08:19:02;;;;;;;2.90;2.20;;;;;;;19.35;93.07;97815.88;1701202;75;746323;-72
2023/05/07 08:21:33;;;;;;;2.30;1.60;;;;;;;19.34;89.92;97820.66;1708081;75;678266;-71
2023/05/07 08:24:03;;;;;;;3.00;2.20;;;;;;;19.24;88.25;97827.16;1701466;75;750357;-73
2023/05/07 08:26:36;;;;;;;1.80;1.70;;;;;;;19.40;86.34;97826.13;1708954;75;667765;-75
2023/05/07 08:29:06;;;;;;;2.30;2.00;;;;;;;;;;1701556;75;749637;-72
2023/05/07 08:31:36;;;;;;;2.60;2.30;;;;;;;19.77;86.43;97821.66;1708785;75;674817;-74
2023/05/07 08:34:08;;;;;;;1.70;1.60;;;;;;;19.91;83.08;97825.19;1700714;75;756836;-71
2023/05/07 08:36:38;;;;;;;2.20;1.70;;;;;;;19.92;84.83;97824.66;1709199;75;675934;-76
2023/05/07 08:39:08;;;;;;;2.30;2.10;;;;;;;19.97;84.26;97821.03;1699863;75;749461;-72
2023/05/07 08:41:41;;;;;;;2.55;2.00;;;;;;;20.21;83.45;97819.28;1710432;75;671213;-71
2023/05/07 08:44:17;;;;;;;2.20;2.00;;;;;;;20.21;76.55;97816.50;1699138;75;753441;-74
2023/05/07 08:46:50;;;;;;;2.00;1.80;;;;;;;20.29;80.34;97820.09;1701458;75;673855;-72
2023/05/07 08:49:21;;;;;;;2.20;2.00;;;;;;;20.36;80.99;97813.88;1707326;75;677925;-71
2023/05/07 08:51:51;;;;;;;1.95;1.75;;;;;;;20.45;79.49;97814.72;1701215;75;674244;-74
2023/05/07 08:54:23;;;;;;;2.10;1.90;;;;;;;20.69;78.88;97816.50;1706447;75;671941;-73
2023/05/07 08:56:56;;;;;;;4.10;3.70;;;;;;;21.04;78.25;97809.56;1701695;75;675658;-72
2023/05/07 08:59:26;;;;;;;7.40;6.10;;;;;;;21.08;75.70;97798.09;1706802;75;677144;-71
2023/05/07 09:01:57;;;;;;;4.40;3.70;;;;;;;21.19;74.61;97795.78;1701848;75;673187;-72
2023/05/07 09:04:27;;;;;;;3.35;2.75;;;;;;;21.24;74.47;97800.47;1706918;75;671754;-74
2023/05/07 09:07:03;;;;;;;2.80;2.00;;;;;;;21.72;71.63;97813.41;1700971;75;673789;-71
2023/05/07 09:09:35;;;;;;;3.80;2.10;;;;;;;21.62;71.96;97813.16;1707397;75;671297;-75
2023/05/07 09:12:09;;;;;;;2.10;1.90;;;;;;;21.65;67.54;97803.72;1702034;75;677356;-72
2023/05/07 09:14:40;;;;;;;2.10;1.40;;;;;;;21.58;67.56;97810.75;1706269;75;678207;-72
2023/05/07 09:17:10;;;;;;;3.10;2.40;;;;;;;21.41;68.00;97807.66;1700801;75;675938;-73
2023/05/07 09:19:40;;;;;;;5.95;4.85;;;;;;;21.64;70.55;97811.31;1706764;75;673043;-73
2023/05/07 09:22:10;;;;;;;4.95;4.05;;;;;;;21.37;70.62;97807.97;1701614;75;679963;-76
2023/05/07 09:24:41;;;;;;;5.10;4.00;;;;;;;21.75;71.01;97817.91;1705610;75;680013;-73
2023/05/07 09:27:14;;;;;;;3.25;2.35;;;;;;;22.06;70.74;97811.19;1700725;75;746574;-71
2023/05/07 09:29:46;;;;;;;2.50;2.00;;;;;;;22.13;69.28;97806.94;1707427;75;676511;-73
2023/05/07 09:32:17;;;;;;;1.40;1.30;;;;;;;22.37;66.93;97810.56;1701021;75;761684;-72
2023/05/07 09:34:48;;;;;;;2.10;1.90;;;;;;;21.96;65.91;97809.44;1707316;75;673869;-74
2023/05/07 09:37:18;;;;;;;2.00;1.80;;;;;;;21.83;67.28;97815.88;1695867;75;833688;-73
2023/05/07 09:39:51;;;;;;;1.40;1.30;;;;;;;22.00;67.84;97813.38;1706924;75;677349;-74
2023/05/07 09:42:27;;;;;;;1.45;1.35;;;;;;;22.20;66.89;97808.25;1701497;75;748954;-75
2023/05/07 09:44:58;;;;;;;1.65;1.45;;;;;;;22.36;66.86;97807.03;1699261;75;674053;-72
2023/05/07 09:47:33;;;;;;;1.40;1.20;;;;;;;22.40;66.93;97810.22;1709596;75;675852;-73
2023/05/07 09:50:08;;;;;;;2.15;1.40;;;;;;;22.44;66.88;97812.63;1699238;75;675847;-75
2023/05/07 09:52:39;;;;;;;2.20;2.00;;;;;;;22.83;62.42;97807.88;1710297;75;674458;-74
2023/05/07 09:55:10;;;;;;;2.20;2.00;;;;;;;22.08;64.26;97816.19;1698419;75;679185;-74
2023/05/07 09:57:45;;;;;;;2.60;2.30;;;;;;;22.04;65.58;97815.81;1709316;75;678405;-72
2023/05/07 10:00:17;;;;;;;1.60;1.50;;;;;;;22.84;66.99;97809.38;1697965;75;678028;-74
2023/05/07 10:02:49;;;;;;;1.70;1.60;;;;;;;22.37;66.62;97807.75;1709855;75;678783;-74
2023/05/07 10:05:20;;;;;;;2.15;1.70;;;;;;;22.51;65.66;97800.72;1698699;75;693028;-76
2023/05/07 10:07:50;;;;;;;2.50;1.70;;;;;;;22.47;65.92;97806.69;1709142;75;687385;-73
2023/05/07 10:10:22;;;;;;;1.90;1.50;;;;;;;22.42;66.80;97806.88;1698420;75;676633;-74
2023/05/07 10:12:56;;;;;;;1.40;1.30;;;;;;;22.89;64.95;97808.44;1710141;75;674202;-73
2023/05/07 10:15:27;;;;;;;2.05;1.85;;;;;;;22.23;66.61;97810.72;1698048;75;743280;-73
2023/05/07 10:17:58;;;;;;;1.55;1.30;;;;;;;22.65;65.71;97804.84;1709679;75;671739;-75
2023/05/07 10:20:30;;;;;;;1.10;1.00;;;;;;;22.87;64.61;97806.19;1697619;75;753479;-73
2023/05/07 10:23:01;;;;;;;1.20;1.10;;;;;;;22.58;63.48;97797.22;1710247;75;667377;-72
2023/05/07 10:25:34;;;;;;;1.35;1.25;;;;;;;22.46;65.37;97794.03;1698574;75;750744;-72
2023/05/07 10:28:11;;;;;;;1.30;1.20;;;;;;;22.42;64.64;97799.25;1709653;75;675996;-74
2023/05/07 10:31:00;;;;;;;1.60;1.30;;;;;;;22.29;62.89;97785.44;1698972;75;747405;-72
2023/05/07 10:33:33;;;;;;;1.00;1.00;;;;;;;22.41;62.10;97783.78;1702018;75;700935;-73
2023/05/07 10:36:05;;;;;;;1.30;1.20;;;;;;;22.61;60.46;97782.19;1706799;75;672123;-74
2023/05/07 10:38:36;;;;;;;1.20;1.10;;;;;;;22.85;60.83;97780.91;1700831;75;671795;-73
2023/05/07 10:41:06;;;;;;;1.50;1.30;;;;;;;23.14;62.46;97783.53;1707096;75;676259;-74
2023/05/07 10:43:48;;;;;;;2.20;1.70;;;;;;;23.28;61.02;97782.03;1701621;75;681656;-72
2023/05/07 10:46:20;;;;;;;1.95;1.80;;;;;;;23.29;59.74;97779.97;1698972;75;675795;-74
2023/05/07 10:49:16;;;;;;;1.50;1.40;;;;;;;22.75;60.26;97783.50;1710053;75;678477;-73
2023/05/07 10:51:47;;;;;;;2.25;1.30;;;;;;;22.62;60.24;97782.91;1698026;75;747999;-72
2023/05/07 10:54:24;;;;;;;2.35;1.50;;;;;;;22.75;58.86;97777.91;1709042;75;676695;-75
2023/05/07 10:56:55;;;;;;;0.70;0.70;;;;;;;23.09;58.63;97787.25;1696206;75;797286;-73
2023/05/07 10:59:45;;;;;;;1.60;1.40;;;;;;;22.49;57.96;97775.47;1709518;75;678102;-75
2023/05/07 11:02:15;;;;;;;1.60;1.15;;;;;;;22.76;57.89;97775.88;1698024;75;750065;-73
2023/05/07 11:04:45;;;;;;;1.80;1.10;;;;;;;23.09;57.27;97765.66;1710161;75;672573;-75
2023/05/07 11:07:36;;;;;;;1.30;1.20;;;;;;;23.15;57.09;97757.81;1697262;75;743207;-74
2023/05/07 11:10:11;;;;;;;2.45;2.10;;;;;;;23.24;58.42;97767.69;1702302;75;674980;-72
2023/05/07 11:12:57;;;;;;;4.30;2.60;;;;;;;23.39;55.61;97755.75;1706121;75;671068;-75
2023/05/07 11:15:46;;;;;;;2.05;1.70;;;;;;;24.00;55.77;97752.03;1701203;75;739288;-73
2023/05/07 11:18:19;;;;;;;2.50;2.30;;;;;;;24.29;54.78;97762.91;1697714;75;707108;-72
2023/05/07 11:21:01;;;;;;;1.40;1.30;;;;;;;24.71;54.63;97748.31;1709792;75;673475;-73
2023/05/07 11:24:02;;;;;;;1.45;1.35;;;;;;;25.01;53.74;97747.31;1697545;75;750968;-74
2023/05/07 11:26:34;;;;;;;2.25;1.30;;;;;;;25.17;53.13;97751.50;1700685;75;745536;-73
2023/05/07 11:29:04;;;;;;;1.80;1.40;;;;;;;24.93;52.08;97750.19;1706849;75;670769;-72
2023/05/07 11:31:37;;;;;;;1.30;1.20;;;;;;;24.75;52.86;97751.44;1700508;75;750087;-74
2023/05/07 11:34:12;;;;;;;1.65;1.20;;;;;;;24.47;52.65;97752.56;1705905;75;672105;-74
2023/05/07 11:36:46;;;;;;;1.20;1.10;;;;;;;24.45;52.53;97750.31;1699985;75;741597;-72
2023/05/07 11:39:37;;;;;;;0.70;0.70;;;;;;;24.52;51.90;97743.22;1707078;75;672721;-75